sensor_id;sensor_type;location;lat;lon;timestamp;pressure;altitude;pressure_sealevel;temperature;humidity
41632;BME280;37452;51.938;4.624;2023-02-19T00:00:29;77349.88;;;-142.75;100.00
41632;BME280;37452;51.938;4.624;2023-02-19T00:02:54;77349.88;;;-142.75;100.00
41632;BME280;37452;51.938;4.624;2023-02-19T00:05:22;77359.72;;;-142.75;100.00
41632;BME280;37452;51.938;4.624;2023-02-19T00:07:47;77365.63;;;-142.75;100.00
41632;BME280;37452;51.938;4.624;2023-02-19T00:10:12;77373.50;;;-142.75;100.00
41632;BME280;37452;51.938;4.624;2023-02-19T00:12:38;77377.44;;;-142.75;100.00
41632;BME280;37452;51.938;4.624;2023-02-19T00:15:03;77377.44;;;-142.75;100.00
41632;BME280;37452;51.938;4.624;2023-02-19T00:17:30;77389.25;;;-142.75;100.00
41632;BME280;37452;51.938;4.624;2023-02-19T00:19:55;77397.13;;;-142.75;100.00
41632;BME280;37452;51.938;4.624;2023-02-19T00:22:21;77395.16;;;-142.75;100.00
41632;BME280;37452;51.938;4.624;2023-02-19T00:24:47;77401.06;;;-142.75;100.00
41632;BME280;37452;51.938;4.624;2023-02-19T00:27:12;77391.22;;;-142.75;100.00
41632;BME280;37452;51.938;4.624;2023-02-19T00:29:38;77393.19;;;-142.75;100.00
41632;BME280;37452;51.938;4.624;2023-02-19T00:32:03;77403.03;;;-142.75;100.00
41632;BME280;37452;51.938;4.624;2023-02-19T00:34:28;77397.13;;;-142.75;100.00
41632;BME280;37452;51.938;4.624;2023-02-19T00:36:54;77406.97;;;-142.75;100.00
41632;BME280;37452;51.938;4.624;2023-02-19T00:39:19;77389.25;;;-142.75;100.00
41632;BME280;37452;51.938;4.624;2023-02-19T00:41:45;77408.94;;;-142.75;100.00
41632;BME280;37452;51.938;4.624;2023-02-19T00:44:11;77408.94;;;-142.75;100.00
41632;BME280;37452;51.938;4.624;2023-02-19T00:46:40;77414.84;;;-142.75;100.00
41632;BME280;37452;51.938;4.624;2023-02-19T00:49:06;77416.81;;;-142.75;100.00
41632;BME280;37452;51.938;4.624;2023-02-19T00:51:34;77405.00;;;-142.75;100.00
41632;BME280;37452;51.938;4.624;2023-02-19T00:54:01;77406.97;;;-142.75;100.00
41632;BME280;37452;51.938;4.624;2023-02-19T00:56:27;77406.97;;;-142.75;100.00
41632;BME280;37452;51.938;4.624;2023-02-19T00:58:52;77424.69;;;-142.75;100.00
41632;BME280;37452;51.938;4.624;2023-02-19T01:01:18;77420.75;;;-142.75;100.00
41632;BME280;37452;51.938;4.624;2023-02-19T01:03:45;77416.81;;;-142.75;100.00
41632;BME280;37452;51.938;4.624;2023-02-19T01:06:13;77428.63;;;-142.75;100.00
41632;BME280;37452;51.938;4.624;2023-02-19T01:08:39;77418.78;;;-142.75;100.00
41632;BME280;37452;51.938;4.624;2023-02-19T01:11:05;77422.72;;;-142.75;100.00
41632;BME280;37452;51.938;4.624;2023-02-19T01:13:32;77424.69;;;-142.75;100.00
41632;BME280;37452;51.938;4.624;2023-02-19T01:16:04;77420.75;;;-142.75;100.00
41632;BME280;37452;51.938;4.624;2023-02-19T01:18:31;77434.53;;;-142.75;100.00
41632;BME280;37452;51.938;4.624;2023-02-19T01:20:56;77424.69;;;-142.75;100.00
41632;BME280;37452;51.938;4.624;2023-02-19T01:23:22;77420.75;;;-142.75;100.00
41632;BME280;37452;51.938;4.624;2023-02-19T01:25:47;77416.81;;;-142.75;100.00
41632;BME280;37452;51.938;4.624;2023-02-19T01:28:12;77426.66;;;-142.75;100.00
41632;BME280;37452;51.938;4.624;2023-02-19T01:30:38;77414.84;;;-142.75;100.00
41632;BME280;37452;51.938;4.624;2023-02-19T01:33:07;77424.69;;;-142.75;100.00
41632;BME280;37452;51.938;4.624;2023-02-19T01:35:33;77428.63;;;-142.75;100.00
41632;BME280;37452;51.938;4.624;2023-02-19T01:37:59;77410.91;;;-142.75;100.00
41632;BME280;37452;51.938;4.624;2023-02-19T01:40:24;77428.63;;;-142.75;100.00
41632;BME280;37452;51.938;4.624;2023-02-19T01:42:50;77436.50;;;-142.75;100.00
41632;BME280;37452;51.938;4.624;2023-02-19T01:45:34;77420.75;;;-142.75;100.00
41632;BME280;37452;51.938;4.624;2023-02-19T01:48:06;77410.91;;;-142.75;100.00
41632;BME280;37452;51.938;4.624;2023-02-19T01:50:37;77401.06;;;-142.75;100.00
41632;BME280;37452;51.938;4.624;2023-02-19T01:53:06;77416.81;;;-142.75;100.00
41632;BME280;37452;51.938;4.624;2023-02-19T01:55:34;77424.69;;;-142.75;100.00
41632;BME280;37452;51.938;4.624;2023-02-19T01:58:00;77428.63;;;-142.75;100.00
41632;BME280;37452;51.938;4.624;2023-02-19T02:00:26;77424.69;;;-142.75;100.00
41632;BME280;37452;51.938;4.624;2023-02-19T02:02:53;77412.88;;;-142.75;100.00
41632;BME280;37452;51.938;4.624;2023-02-19T02:05:48;77420.75;;;-142.75;100.00
41632;BME280;37452;51.938;4.624;2023-02-19T02:08:16;77444.38;;;-142.75;100.00
41632;BME280;37452;51.938;4.624;2023-02-19T02:11:01;77452.25;;;-142.75;100.00
41632;BME280;37452;51.938;4.624;2023-02-19T02:13:27;77442.41;;;-142.75;100.00
41632;BME280;37452;51.938;4.624;2023-02-19T02:16:00;77448.34;;;-142.75;100.00
41632;BME280;37452;51.938;4.624;2023-02-19T02:21:29;77446.34;;;-142.75;100.00
41632;BME280;37452;51.938;4.624;2023-02-19T02:24:11;77430.59;;;-142.75;100.00
41632;BME280;37452;51.938;4.624;2023-02-19T02:38:12;77436.50;;;-142.75;100.00
41632;BME280;37452;51.938;4.624;2023-02-19T02:40:41;77438.47;;;-142.75;100.00
41632;BME280;37452;51.938;4.624;2023-02-19T02:43:08;77444.38;;;-142.75;100.00
41632;BME280;37452;51.938;4.624;2023-02-19T02:45:33;77440.44;;;-142.75;100.00
41632;BME280;37452;51.938;4.624;2023-02-19T02:48:01;77460.13;;;-142.75;100.00
41632;BME280;37452;51.938;4.624;2023-02-19T02:50:33;77452.25;;;-142.75;100.00
41632;BME280;37452;51.938;4.624;2023-02-19T02:53:05;77454.25;;;-142.75;100.00
41632;BME280;37452;51.938;4.624;2023-02-19T02:55:51;77470.00;;;-142.75;100.00
41632;BME280;37452;51.938;4.624;2023-02-19T02:58:19;77464.09;;;-142.75;100.00
41632;BME280;37452;51.938;4.624;2023-02-19T03:00:51;77456.22;;;-142.75;100.00
41632;BME280;37452;51.938;4.624;2023-02-19T03:03:38;77483.78;;;-142.75;100.00
41632;BME280;37452;51.938;4.624;2023-02-19T03:06:06;77483.78;;;-142.75;100.00
41632;BME280;37452;51.938;4.624;2023-02-19T03:08:39;77475.91;;;-142.75;100.00
41632;BME280;37452;51.938;4.624;2023-02-19T03:11:11;77470.00;;;-142.75;100.00
41632;BME280;37452;51.938;4.624;2023-02-19T03:14:15;77468.03;;;-142.75;100.00
41632;BME280;37452;51.938;4.624;2023-02-19T03:17:12;77477.88;;;-142.75;100.00
41632;BME280;37452;51.938;4.624;2023-02-19T03:19:57;77479.84;;;-142.75;100.00
41632;BME280;37452;51.938;4.624;2023-02-19T03:22:29;77481.81;;;-142.75;100.00
41632;BME280;37452;51.938;4.624;2023-02-19T03:25:22;77475.91;;;-142.75;100.00
41632;BME280;37452;51.938;4.624;2023-02-19T03:28:09;77491.66;;;-142.75;100.00
41632;BME280;37452;51.938;4.624;2023-02-19T03:30:39;77489.69;;;-142.75;100.00
41632;BME280;37452;51.938;4.624;2023-02-19T03:33:13;77475.91;;;-142.75;100.00
41632;BME280;37452;51.938;4.624;2023-02-19T03:35:49;77485.75;;;-142.75;100.00
41632;BME280;37452;51.938;4.624;2023-02-19T03:38:36;77491.66;;;-142.75;100.00
41632;BME280;37452;51.938;4.624;2023-02-19T03:41:29;77497.56;;;-142.75;100.00
41632;BME280;37452;51.938;4.624;2023-02-19T03:44:12;77495.59;;;-142.75;100.00
41632;BME280;37452;51.938;4.624;2023-02-19T03:46:53;77501.50;;;-142.75;100.00
41632;BME280;37452;51.938;4.624;2023-02-19T03:49:29;77507.41;;;-142.75;100.00
41632;BME280;37452;51.938;4.624;2023-02-19T03:52:58;77507.41;;;-142.75;100.00
41632;BME280;37452;51.938;4.624;2023-02-19T03:55:17;77523.16;;;-142.75;100.00
41632;BME280;37452;51.938;4.624;2023-02-19T04:00:17;77527.09;;;-142.75;100.00
41632;BME280;37452;51.938;4.624;2023-02-19T04:02:49;77521.19;;;-142.75;100.00
41632;BME280;37452;51.938;4.624;2023-02-19T04:05:20;77527.09;;;-142.75;100.00
41632;BME280;37452;51.938;4.624;2023-02-19T04:07:49;77546.78;;;-142.75;100.00
41632;BME280;37452;51.938;4.624;2023-02-19T04:10:17;77538.91;;;-142.75;100.00
41632;BME280;37452;51.938;4.624;2023-02-19T04:12:48;77562.53;;;-142.75;100.00
41632;BME280;37452;51.938;4.624;2023-02-19T04:15:20;77550.72;;;-142.75;100.00
41632;BME280;37452;51.938;4.624;2023-02-19T04:17:56;77554.66;;;-142.75;100.00
41632;BME280;37452;51.938;4.624;2023-02-19T04:20:24;77554.66;;;-142.75;100.00
41632;BME280;37452;51.938;4.624;2023-02-19T04:22:52;77556.63;;;-142.75;100.00
41632;BME280;37452;51.938;4.624;2023-02-19T04:25:17;77574.34;;;-142.75;100.00
41632;BME280;37452;51.938;4.624;2023-02-19T04:27:43;77574.34;;;-142.75;100.00
41632;BME280;37452;51.938;4.624;2023-02-19T04:30:14;77572.38;;;-142.75;100.00
41632;BME280;37452;51.938;4.624;2023-02-19T04:32:40;77582.22;;;-142.75;100.00
41632;BME280;37452;51.938;4.624;2023-02-19T04:35:06;77580.25;;;-142.75;100.00
41632;BME280;37452;51.938;4.624;2023-02-19T04:37:31;77594.03;;;-142.75;100.00
41632;BME280;37452;51.938;4.624;2023-02-19T04:39:56;77580.25;;;-142.75;100.00
41632;BME280;37452;51.938;4.624;2023-02-19T04:42:21;77574.34;;;-142.75;100.00
41632;BME280;37452;51.938;4.624;2023-02-19T04:44:47;77584.19;;;-142.75;100.00
41632;BME280;37452;51.938;4.624;2023-02-19T04:47:12;77590.09;;;-142.75;100.00
41632;BME280;37452;51.938;4.624;2023-02-19T04:49:37;77597.97;;;-142.75;100.00
41632;BME280;37452;51.938;4.624;2023-02-19T04:52:03;77590.09;;;-142.75;100.00
41632;BME280;37452;51.938;4.624;2023-02-19T04:54:28;77590.09;;;-142.75;100.00
41632;BME280;37452;51.938;4.624;2023-02-19T04:56:53;77594.03;;;-142.75;100.00
41632;BME280;37452;51.938;4.624;2023-02-19T04:59:18;77601.91;;;-142.75;100.00
41632;BME280;37452;51.938;4.624;2023-02-19T05:01:44;77597.97;;;-142.75;100.00
41632;BME280;37452;51.938;4.624;2023-02-19T05:04:09;77613.72;;;-142.75;100.00
41632;BME280;37452;51.938;4.624;2023-02-19T05:06:34;77613.72;;;-142.75;100.00
41632;BME280;37452;51.938;4.624;2023-02-19T05:09:00;77621.59;;;-142.75;100.00
41632;BME280;37452;51.938;4.624;2023-02-19T05:11:25;77625.53;;;-142.75;100.00
41632;BME280;37452;51.938;4.624;2023-02-19T05:13:50;77641.28;;;-142.75;100.00
41632;BME280;37452;51.938;4.624;2023-02-19T05:16:16;77645.22;;;-142.75;100.00
41632;BME280;37452;51.938;4.624;2023-02-19T05:18:42;77635.38;;;-142.75;100.00
41632;BME280;37452;51.938;4.624;2023-02-19T05:21:08;77641.28;;;-142.75;100.00
41632;BME280;37452;51.938;4.624;2023-02-19T05:23:33;77645.22;;;-142.75;100.00
41632;BME280;37452;51.938;4.624;2023-02-19T05:26:04;77660.97;;;-142.75;100.00
41632;BME280;37452;51.938;4.624;2023-02-19T05:28:29;77653.09;;;-142.75;100.00
41632;BME280;37452;51.938;4.624;2023-02-19T05:30:56;77660.97;;;-142.75;100.00
41632;BME280;37452;51.938;4.624;2023-02-19T05:33:23;77676.72;;;-142.75;100.00
41632;BME280;37452;51.938;4.624;2023-02-19T05:35:52;77684.59;;;-142.75;100.00
41632;BME280;37452;51.938;4.624;2023-02-19T05:38:18;77649.16;;;-142.75;100.00
41632;BME280;37452;51.938;4.624;2023-02-19T05:40:44;77666.88;;;-142.75;100.00
41632;BME280;37452;51.938;4.624;2023-02-19T05:43:11;77653.09;;;-142.75;100.00
41632;BME280;37452;51.938;4.624;2023-02-19T05:45:37;77659.00;;;-142.75;100.00
41632;BME280;37452;51.938;4.624;2023-02-19T05:48:03;77660.97;;;-142.75;100.00
41632;BME280;37452;51.938;4.624;2023-02-19T05:50:30;77668.84;;;-142.75;100.00
41632;BME280;37452;51.938;4.624;2023-02-19T05:52:59;77666.88;;;-142.75;100.00
41632;BME280;37452;51.938;4.624;2023-02-19T05:55:24;77655.06;;;-142.75;100.00
41632;BME280;37452;51.938;4.624;2023-02-19T05:57:49;77676.72;;;-142.75;100.00
41632;BME280;37452;51.938;4.624;2023-02-19T06:00:16;77668.84;;;-142.75;100.00
41632;BME280;37452;51.938;4.624;2023-02-19T06:02:42;77657.03;;;-142.75;100.00
41632;BME280;37452;51.938;4.624;2023-02-19T06:05:07;77678.69;;;-142.75;100.00
41632;BME280;37452;51.938;4.624;2023-02-19T06:07:33;77666.88;;;-142.75;100.00
41632;BME280;37452;51.938;4.624;2023-02-19T06:09:59;77684.59;;;-142.75;100.00
41632;BME280;37452;51.938;4.624;2023-02-19T06:12:24;77688.53;;;-142.75;100.00
41632;BME280;37452;51.938;4.624;2023-02-19T06:14:50;77680.66;;;-142.75;100.00
41632;BME280;37452;51.938;4.624;2023-02-19T06:17:15;77680.66;;;-142.75;100.00
41632;BME280;37452;51.938;4.624;2023-02-19T06:19:41;77690.50;;;-142.75;100.00
41632;BME280;37452;51.938;4.624;2023-02-19T06:22:06;77696.41;;;-142.75;100.00
41632;BME280;37452;51.938;4.624;2023-02-19T06:24:32;77692.47;;;-142.75;100.00
41632;BME280;37452;51.938;4.624;2023-02-19T06:26:57;77700.34;;;-142.75;100.00
41632;BME280;37452;51.938;4.624;2023-02-19T06:29:23;77698.38;;;-142.75;100.00
41632;BME280;37452;51.938;4.624;2023-02-19T06:31:48;77708.22;;;-142.75;100.00
41632;BME280;37452;51.938;4.624;2023-02-19T06:34:14;77716.09;;;-142.75;100.00
41632;BME280;37452;51.938;4.624;2023-02-19T06:36:39;77723.97;;;-142.75;100.00
41632;BME280;37452;51.938;4.624;2023-02-19T06:39:05;77716.09;;;-142.75;100.00
41632;BME280;37452;51.938;4.624;2023-02-19T06:41:30;77725.97;;;-142.75;100.00
41632;BME280;37452;51.938;4.624;2023-02-19T06:43:56;77714.13;;;-142.75;100.00
41632;BME280;37452;51.938;4.624;2023-02-19T06:46:22;77731.88;;;-142.75;100.00
41632;BME280;37452;51.938;4.624;2023-02-19T06:48:48;77718.06;;;-142.75;100.00
41632;BME280;37452;51.938;4.624;2023-02-19T06:51:16;77723.97;;;-142.75;100.00
41632;BME280;37452;51.938;4.624;2023-02-19T06:53:51;77706.25;;;-142.75;100.00
41632;BME280;37452;51.938;4.624;2023-02-19T06:56:41;77716.09;;;-142.75;100.00
41632;BME280;37452;51.938;4.624;2023-02-19T06:59:10;77727.94;;;-142.75;100.00
41632;BME280;37452;51.938;4.624;2023-02-19T07:01:36;77718.06;;;-142.75;100.00
41632;BME280;37452;51.938;4.624;2023-02-19T07:04:02;77727.94;;;-142.75;100.00
41632;BME280;37452;51.938;4.624;2023-02-19T07:06:29;77727.94;;;-142.75;100.00
41632;BME280;37452;51.938;4.624;2023-02-19T07:08:56;77731.88;;;-142.75;100.00
41632;BME280;37452;51.938;4.624;2023-02-19T07:11:22;77735.81;;;-142.75;100.00
41632;BME280;37452;51.938;4.624;2023-02-19T07:13:53;77731.88;;;-142.75;100.00
41632;BME280;37452;51.938;4.624;2023-02-19T07:16:19;77757.47;;;-142.75;100.00
41632;BME280;37452;51.938;4.624;2023-02-19T07:18:44;77783.06;;;-142.75;100.00
41632;BME280;37452;51.938;4.624;2023-02-19T07:21:12;77755.50;;;-142.75;100.00
41632;BME280;37452;51.938;4.624;2023-02-19T07:23:39;77751.56;;;-142.75;100.00
41632;BME280;37452;51.938;4.624;2023-02-19T07:26:08;77763.38;;;-142.75;100.00
41632;BME280;37452;51.938;4.624;2023-02-19T07:28:33;77771.25;;;-142.75;100.00
41632;BME280;37452;51.938;4.624;2023-02-19T07:31:00;77757.47;;;-142.75;100.00
41632;BME280;37452;51.938;4.624;2023-02-19T07:33:26;77781.09;;;-142.75;100.00
41632;BME280;37452;51.938;4.624;2023-02-19T07:35:51;77775.19;;;-142.75;100.00
41632;BME280;37452;51.938;4.624;2023-02-19T07:38:21;77755.50;;;-142.75;100.00
41632;BME280;37452;51.938;4.624;2023-02-19T07:40:54;77788.97;;;-142.75;100.00
41632;BME280;37452;51.938;4.624;2023-02-19T07:43:21;77788.97;;;-142.75;100.00
41632;BME280;37452;51.938;4.624;2023-02-19T07:45:47;77787.00;;;-142.75;100.00
41632;BME280;37452;51.938;4.624;2023-02-19T07:48:13;77800.78;;;-142.75;100.00
41632;BME280;37452;51.938;4.624;2023-02-19T07:50:38;77814.56;;;-142.75;100.00
41632;BME280;37452;51.938;4.624;2023-02-19T07:53:04;77818.50;;;-142.75;100.00
41632;BME280;37452;51.938;4.624;2023-02-19T07:55:31;77814.56;;;-142.75;100.00
41632;BME280;37452;51.938;4.624;2023-02-19T07:57:57;77818.50;;;-142.75;100.00
41632;BME280;37452;51.938;4.624;2023-02-19T08:00:23;77816.53;;;-142.75;100.00
41632;BME280;37452;51.938;4.624;2023-02-19T08:02:50;77828.34;;;-142.75;100.00
41632;BME280;37452;51.938;4.624;2023-02-19T08:05:29;77826.38;;;-142.75;100.00
41632;BME280;37452;51.938;4.624;2023-02-19T08:07:56;77814.56;;;-142.75;100.00
41632;BME280;37452;51.938;4.624;2023-02-19T08:10:21;77822.44;;;-142.75;100.00
41632;BME280;37452;51.938;4.624;2023-02-19T08:13:05;77830.31;;;-142.75;100.00
41632;BME280;37452;51.938;4.624;2023-02-19T08:18:29;77840.16;;;-142.75;100.00
41632;BME280;37452;51.938;4.624;2023-02-19T08:20:55;77834.25;;;-142.75;100.00
41632;BME280;37452;51.938;4.624;2023-02-19T08:23:21;77832.28;;;-142.75;100.00
41632;BME280;37452;51.938;4.624;2023-02-19T08:25:48;77838.19;;;-142.75;100.00
41632;BME280;37452;51.938;4.624;2023-02-19T08:28:14;77818.50;;;-142.75;100.00
41632;BME280;37452;51.938;4.624;2023-02-19T08:30:41;77830.31;;;-142.75;100.00
41632;BME280;37452;51.938;4.624;2023-02-19T08:33:09;77826.38;;;-142.75;100.00
41632;BME280;37452;51.938;4.624;2023-02-19T08:35:35;77810.63;;;-142.75;100.00
41632;BME280;37452;51.938;4.624;2023-02-19T08:38:01;77804.72;;;-142.75;100.00
41632;BME280;37452;51.938;4.624;2023-02-19T08:40:26;77804.72;;;-142.75;100.00
41632;BME280;37452;51.938;4.624;2023-02-19T08:42:52;77806.69;;;-142.75;100.00
41632;BME280;37452;51.938;4.624;2023-02-19T08:45:17;77790.94;;;-142.75;100.00
41632;BME280;37452;51.938;4.624;2023-02-19T08:47:43;77818.50;;;-142.75;100.00
41632;BME280;37452;51.938;4.624;2023-02-19T08:50:09;77818.50;;;-142.75;100.00
41632;BME280;37452;51.938;4.624;2023-02-19T08:52:35;77834.25;;;-142.75;100.00
41632;BME280;37452;51.938;4.624;2023-02-19T08:55:02;77832.28;;;-142.75;100.00
41632;BME280;37452;51.938;4.624;2023-02-19T08:57:27;77830.31;;;-142.75;100.00
41632;BME280;37452;51.938;4.624;2023-02-19T08:59:54;77834.25;;;-142.75;100.00
41632;BME280;37452;51.938;4.624;2023-02-19T09:02:20;77850.00;;;-142.75;100.00
41632;BME280;37452;51.938;4.624;2023-02-19T09:04:45;77848.03;;;-142.75;100.00
41632;BME280;37452;51.938;4.624;2023-02-19T09:07:11;77830.31;;;-142.75;100.00
41632;BME280;37452;51.938;4.624;2023-02-19T09:09:36;77836.22;;;-142.75;100.00
41632;BME280;37452;51.938;4.624;2023-02-19T09:12:06;77822.44;;;-142.75;100.00
41632;BME280;37452;51.938;4.624;2023-02-19T09:14:32;77830.31;;;-142.75;100.00
41632;BME280;37452;51.938;4.624;2023-02-19T09:16:58;77830.31;;;-142.75;100.00
41632;BME280;37452;51.938;4.624;2023-02-19T09:19:25;77846.06;;;-142.75;100.00
41632;BME280;37452;51.938;4.624;2023-02-19T09:21:50;77838.19;;;-142.75;100.00
41632;BME280;37452;51.938;4.624;2023-02-19T09:24:16;77848.03;;;-142.75;100.00
41632;BME280;37452;51.938;4.624;2023-02-19T09:26:41;77832.28;;;-142.75;100.00
41632;BME280;37452;51.938;4.624;2023-02-19T09:29:06;77818.50;;;-142.75;100.00
41632;BME280;37452;51.938;4.624;2023-02-19T09:31:31;77822.44;;;-142.75;100.00
41632;BME280;37452;51.938;4.624;2023-02-19T09:33:59;77834.25;;;-142.75;100.00
41632;BME280;37452;51.938;4.624;2023-02-19T09:36:24;77832.28;;;-142.75;100.00
41632;BME280;37452;51.938;4.624;2023-02-19T09:38:49;77834.25;;;-142.75;100.00
41632;BME280;37452;51.938;4.624;2023-02-19T09:41:46;77836.22;;;-142.75;100.00
41632;BME280;37452;51.938;4.624;2023-02-19T09:44:12;77826.38;;;-142.75;100.00
41632;BME280;37452;51.938;4.624;2023-02-19T09:46:49;77808.66;;;-142.75;100.00
41632;BME280;37452;51.938;4.624;2023-02-19T09:49:16;77796.84;;;-142.75;100.00
41632;BME280;37452;51.938;4.624;2023-02-19T09:51:45;77788.97;;;-142.75;100.00
41632;BME280;37452;51.938;4.624;2023-02-19T09:54:19;77794.88;;;-142.75;100.00
41632;BME280;37452;51.938;4.624;2023-02-19T09:56:46;77790.94;;;-142.75;100.00
41632;BME280;37452;51.938;4.624;2023-02-19T09:59:23;77783.06;;;-142.75;100.00
41632;BME280;37452;51.938;4.624;2023-02-19T10:01:57;77804.72;;;-142.75;100.00
41632;BME280;37452;51.938;4.624;2023-02-19T10:04:25;77846.06;;;-142.75;100.00
41632;BME280;37452;51.938;4.624;2023-02-19T10:06:51;77879.53;;;-142.75;100.00
41632;BME280;37452;51.938;4.624;2023-02-19T10:09:25;77907.09;;;-142.75;100.00
41632;BME280;37452;51.938;4.624;2023-02-19T10:11:54;77889.38;;;-142.75;100.00
41632;BME280;37452;51.938;4.624;2023-02-19T10:14:36;77893.31;;;-142.75;100.00
41632;BME280;37452;51.938;4.624;2023-02-19T10:17:04;77928.78;;;-142.75;100.00
41632;BME280;37452;51.938;4.624;2023-02-19T10:19:31;77928.78;;;-142.75;100.00
41632;BME280;37452;51.938;4.624;2023-02-19T10:21:58;77913.03;;;-142.75;100.00
41632;BME280;37452;51.938;4.624;2023-02-19T10:24:26;77938.63;;;-142.75;100.00
41632;BME280;37452;51.938;4.624;2023-02-19T10:26:53;77952.41;;;-142.75;100.00
41632;BME280;37452;51.938;4.624;2023-02-19T10:29:19;77985.88;;;-142.75;100.00
41632;BME280;37452;51.938;4.624;2023-02-19T10:31:46;77966.19;;;-142.75;100.00
41632;BME280;37452;51.938;4.624;2023-02-19T10:34:20;77960.28;;;-142.75;100.00
41632;BME280;37452;51.938;4.624;2023-02-19T10:36:48;77995.72;;;-142.75;100.00
41632;BME280;37452;51.938;4.624;2023-02-19T10:41:46;77995.72;;;-142.75;100.00
41632;BME280;37452;51.938;4.624;2023-02-19T10:46:42;78062.69;;;-142.75;100.00
41632;BME280;37452;51.938;4.624;2023-02-19T10:49:31;78074.50;;;-142.75;100.00
41632;BME280;37452;51.938;4.624;2023-02-19T10:52:03;78076.47;;;-142.75;100.00
41632;BME280;37452;51.938;4.624;2023-02-19T10:54:34;78070.56;;;-142.75;100.00
41632;BME280;37452;51.938;4.624;2023-02-19T10:59:50;78050.84;;;-142.75;100.00
41632;BME280;37452;51.938;4.624;2023-02-19T11:02:17;78046.91;;;-142.75;100.00
41632;BME280;37452;51.938;4.624;2023-02-19T11:07:34;78050.84;;;-142.75;100.00
41632;BME280;37452;51.938;4.624;2023-02-19T11:10:00;78066.63;;;-142.75;100.00
41632;BME280;37452;51.938;4.624;2023-02-19T11:12:32;78037.06;;;-142.75;100.00
41632;BME280;37452;51.938;4.624;2023-02-19T11:17:54;78068.59;;;-142.75;100.00
41632;BME280;37452;51.938;4.624;2023-02-19T11:20:20;78080.41;;;-142.75;100.00
41632;BME280;37452;51.938;4.624;2023-02-19T11:22:45;78060.72;;;-142.75;100.00
41632;BME280;37452;51.938;4.624;2023-02-19T11:28:04;78056.78;;;-142.75;100.00
41632;BME280;37452;51.938;4.624;2023-02-19T11:30:37;78041.00;;;-142.75;100.00
41632;BME280;37452;51.938;4.624;2023-02-19T11:35:40;77997.69;;;-142.75;100.00
41632;BME280;37452;51.938;4.624;2023-02-19T11:38:08;77978.00;;;-142.75;100.00
41632;BME280;37452;51.938;4.624;2023-02-19T11:40:53;77942.56;;;-142.75;100.00
41632;BME280;37452;51.938;4.624;2023-02-19T11:46:21;77958.31;;;-142.75;100.00
41632;BME280;37452;51.938;4.624;2023-02-19T11:52:01;77940.59;;;-142.75;100.00
41632;BME280;37452;51.938;4.624;2023-02-19T12:00:30;77987.84;;;-142.75;100.00
41632;BME280;37452;51.938;4.624;2023-02-19T12:14:26;78019.34;;;-142.75;100.00
41632;BME280;37452;51.938;4.624;2023-02-19T12:19:40;78019.34;;;-142.75;100.00
41632;BME280;37452;51.938;4.624;2023-02-19T12:30:25;78052.81;;;-142.75;100.00
41632;BME280;37452;51.938;4.624;2023-02-19T12:33:03;78039.03;;;-142.75;100.00
41632;BME280;37452;51.938;4.624;2023-02-19T12:38:43;78039.03;;;-142.75;100.00
41632;BME280;37452;51.938;4.624;2023-02-19T12:44:14;78015.41;;;-142.75;100.00
41632;BME280;37452;51.938;4.624;2023-02-19T12:46:53;78027.22;;;-142.75;100.00
41632;BME280;37452;51.938;4.624;2023-02-19T12:49:26;78015.41;;;-142.75;100.00
41632;BME280;37452;51.938;4.624;2023-02-19T12:51:59;77999.66;;;-142.75;100.00
41632;BME280;37452;51.938;4.624;2023-02-19T12:54:32;78003.59;;;-142.75;100.00
41632;BME280;37452;51.938;4.624;2023-02-19T12:57:02;77997.69;;;-142.75;100.00
41632;BME280;37452;51.938;4.624;2023-02-19T13:02:47;78039.03;;;-142.75;100.00
41632;BME280;37452;51.938;4.624;2023-02-19T13:05:03;78042.97;;;-142.75;100.00
41632;BME280;37452;51.938;4.624;2023-02-19T13:07:37;78086.31;;;-142.75;100.00
41632;BME280;37452;51.938;4.624;2023-02-19T13:12:38;78098.13;;;-142.75;100.00
41632;BME280;37452;51.938;4.624;2023-02-19T13:15:30;78106.00;;;-142.75;100.00
41632;BME280;37452;51.938;4.624;2023-02-19T13:17:57;78149.31;;;-142.75;100.00
41632;BME280;37452;51.938;4.624;2023-02-19T13:20:40;78141.44;;;-142.75;100.00
41632;BME280;37452;51.938;4.624;2023-02-19T13:23:13;78172.94;;;-142.75;100.00
41632;BME280;37452;51.938;4.624;2023-02-19T13:37:26;78169.00;;;-142.75;100.00
41632;BME280;37452;51.938;4.624;2023-02-19T13:39:53;78200.53;;;-142.75;100.00
41632;BME280;37452;51.938;4.624;2023-02-19T13:42:30;78192.66;;;-142.75;100.00
41632;BME280;37452;51.938;4.624;2023-02-19T13:44:57;78180.81;;;-142.75;100.00
41632;BME280;37452;51.938;4.624;2023-02-19T13:52:44;78153.25;;;-142.75;100.00
41632;BME280;37452;51.938;4.624;2023-02-19T14:00:57;78188.72;;;-142.75;100.00
41632;BME280;37452;51.938;4.624;2023-02-19T14:03:52;78206.44;;;-142.75;100.00
41632;BME280;37452;51.938;4.624;2023-02-19T14:06:19;78220.22;;;-142.75;100.00
41632;BME280;37452;51.938;4.624;2023-02-19T14:11:11;78228.09;;;-142.75;100.00
41632;BME280;37452;51.938;4.624;2023-02-19T14:18:59;78212.34;;;-142.75;100.00
41632;BME280;37452;51.938;4.624;2023-02-19T14:21:37;78214.31;;;-142.75;100.00
41632;BME280;37452;51.938;4.624;2023-02-19T14:24:04;78196.59;;;-142.75;100.00
41632;BME280;37452;51.938;4.624;2023-02-19T14:26:31;78230.06;;;-142.75;100.00
41632;BME280;37452;51.938;4.624;2023-02-19T14:28:59;78228.09;;;-142.75;100.00
41632;BME280;37452;51.938;4.624;2023-02-19T14:31:30;78224.16;;;-142.75;100.00
41632;BME280;37452;51.938;4.624;2023-02-19T14:34:15;78239.91;;;-142.75;100.00
41632;BME280;37452;51.938;4.624;2023-02-19T14:36:57;78255.66;;;-142.75;100.00